createdAt,value
2022-11-16T00:01:56.348Z,94294.69
2022-11-16T00:04:25.392Z,94291.88
2022-11-16T00:06:53.735Z,94297.53
2022-11-16T00:09:25.549Z,94292.28
2022-11-16T00:11:55.134Z,94287.81
2022-11-16T00:14:24.471Z,94288.63
2022-11-16T00:16:52.480Z,94288.63
2022-11-16T00:19:20.764Z,94290.25
2022-11-16T00:21:50.797Z,94285.59
2022-11-16T00:24:21.456Z,94288.59
2022-11-16T00:26:50.272Z,94289.22
2022-11-16T00:29:20.182Z,94286.38
2022-11-16T00:31:48.485Z,94291.63
2022-11-16T00:34:16.804Z,94286.16
2022-11-16T00:36:44.777Z,94287.56
2022-11-16T00:39:15.109Z,94288.16
2022-11-16T00:41:44.057Z,94268.75
2022-11-16T00:44:12.205Z,94270.75
2022-11-16T00:46:40.640Z,94278.66
2022-11-16T00:49:08.668Z,94275.22
2022-11-16T00:51:37.517Z,94274.84
2022-11-16T00:54:08.043Z,94277.41
2022-11-16T00:56:39.247Z,94278.44
2022-11-16T00:59:07.894Z,94270.34
2022-11-16T01:01:36.123Z,94268.31
2022-11-16T01:04:03.845Z,94272.78
2022-11-16T01:06:31.915Z,94264.69
2022-11-16T01:09:01.422Z,94265.88
2022-11-16T01:11:47.111Z,94266.72
2022-11-16T01:14:16.153Z,94268.50
2022-11-16T01:16:44.907Z,94271.75
2022-11-16T01:19:12.588Z,94265.50
2022-11-16T01:21:40.712Z,94263.88
2022-11-16T01:24:08.460Z,94253.34
2022-11-16T01:26:36.154Z,94257.00
2022-11-16T01:29:04.998Z,94247.47
2022-11-16T01:31:38.213Z,94257.81
2022-11-16T01:34:06.497Z,94268.50
2022-11-16T01:36:36.638Z,94273.97
2022-11-16T01:39:05.939Z,94269.72
2022-11-16T01:41:45.327Z,94279.69
2022-11-16T01:44:46.650Z,94288.97
2022-11-16T01:47:20.072Z,94275.00
2022-11-16T01:49:52.542Z,94281.06
2022-11-16T01:52:30.154Z,94273.59
2022-11-16T01:54:58.354Z,94277.63
2022-11-16T01:57:33.898Z,94276.03
2022-11-16T02:00:10.550Z,94262.88
2022-11-16T02:03:02.484Z,94278.47
2022-11-16T02:05:52.419Z,94273.59
2022-11-16T02:08:50.205Z,94270.81
2022-11-16T02:11:41.309Z,94269.59
2022-11-16T02:14:20.698Z,94255.19
2022-11-16T02:16:57.413Z,94274.03
2022-11-16T02:19:56.993Z,94260.66
2022-11-16T02:22:39.526Z,94273.63
2022-11-16T02:25:18.575Z,94269.59
2022-11-16T02:28:17.853Z,94271.19
2022-11-16T02:30:51.750Z,94266.31
2022-11-16T02:33:23.432Z,94277.69
2022-11-16T02:35:54.155Z,94267.97
2022-11-16T02:38:27.425Z,94268.78
2022-11-16T02:40:59.709Z,94267.75
2022-11-16T02:43:35.401Z,94270.59
2022-11-16T02:46:08.960Z,94260.25
2022-11-16T02:48:42.656Z,94252.34
2022-11-16T02:51:12.122Z,94268.34
2022-11-16T02:53:51.501Z,94263.25
2022-11-16T02:56:21.883Z,94255.53
2022-11-16T02:58:50.285Z,94267.88
2022-11-16T03:01:27.945Z,94273.94
2022-11-16T03:04:02.925Z,94275.56
2022-11-16T03:06:34.082Z,94284.50
2022-11-16T03:09:07.082Z,94283.31
2022-11-16T03:11:54.978Z,94289.38
2022-11-16T03:14:28.687Z,94291.19
2022-11-16T03:16:59.255Z,94295.44
2022-11-16T03:19:36.878Z,94295.50
2022-11-16T03:22:11.565Z,94302.75
2022-11-16T03:24:40.719Z,94308.84
2022-11-16T03:27:16.848Z,94306.41
2022-11-16T03:29:53.565Z,94299.09
2022-11-16T03:32:30.812Z,94305.59
2022-11-16T03:35:03.900Z,94313.88
2022-11-16T03:37:34.873Z,94308.63
2022-11-16T03:40:05.343Z,94307.22
2022-11-16T03:42:35.295Z,94313.06
2022-11-16T03:45:05.082Z,94322.19
2022-11-16T03:47:34.140Z,94318.91
2022-11-16T03:50:04.910Z,94320.13
2022-11-16T03:52:32.601Z,94322.16
2022-11-16T03:55:01.116Z,94333.69
2022-11-16T03:57:28.895Z,94327.78
2022-11-16T03:59:59.648Z,94326.38
2022-11-16T04:02:27.477Z,94332.63
2022-11-16T04:05:16.590Z,94339.91
2022-11-16T04:08:01.996Z,94350.41
2022-11-16T04:11:02.426Z,94342.47
2022-11-16T04:13:52.326Z,94360.31
2022-11-16T04:16:38.581Z,94352.41
2022-11-16T04:19:27.346Z,94349.59
2022-11-16T04:22:17.439Z,94345.94
2022-11-16T04:24:50.125Z,94357.09
2022-11-16T04:27:39.190Z,94357.31
2022-11-16T04:30:08.671Z,94366.84
2022-11-16T04:32:54.798Z,94361.59
2022-11-16T04:35:42.007Z,94363.78
2022-11-16T04:38:12.290Z,94362.56
2022-11-16T04:40:40.626Z,94363.78
2022-11-16T04:43:11.268Z,94359.50
2022-11-16T04:45:59.986Z,94360.31
2022-11-16T04:48:35.557Z,94352.00
2022-11-16T04:51:04.436Z,94358.44
2022-11-16T04:53:34.826Z,94344.47
2022-11-16T04:56:12.751Z,94354.00
2022-11-16T04:58:40.404Z,94351.94
2022-11-16T05:01:09.613Z,94348.09
2022-11-16T05:03:37.390Z,94352.72
2022-11-16T05:06:05.822Z,94347.47
2022-11-16T05:08:36.258Z,94334.44
2022-11-16T05:11:06.426Z,94336.03
2022-11-16T05:13:34.238Z,94337.63
2022-11-16T05:16:03.419Z,94333.16
2022-11-16T05:18:32.289Z,94327.41
2022-11-16T05:21:03.315Z,94323.31
2022-11-16T05:23:55.863Z,94310.75
2022-11-16T05:26:26.913Z,94312.75
2022-11-16T05:28:55.777Z,94321.69
2022-11-16T05:31:23.809Z,94324.91
2022-11-16T05:33:51.518Z,94328.75
2022-11-16T05:36:21.020Z,94328.56
2022-11-16T05:38:53.894Z,94330.59
2022-11-16T05:41:27.960Z,94324.94
2022-11-16T05:43:56.025Z,94329.00
2022-11-16T05:46:24.487Z,94331.00
2022-11-16T05:48:52.626Z,94331.00
2022-11-16T05:51:20.534Z,94334.84
2022-11-16T05:53:50.327Z,94334.19
2022-11-16T05:56:22.544Z,94341.75
2022-11-16T05:58:51.193Z,94335.66
2022-11-16T06:01:19.212Z,94338.72
2022-11-16T06:03:50.198Z,94333.50
2022-11-16T06:06:20.220Z,94328.22
2022-11-16T06:08:50.741Z,94329.41
2022-11-16T06:11:24.377Z,94325.75
2022-11-16T06:13:52.191Z,94327.16
2022-11-16T06:16:21.066Z,94341.75
2022-11-16T06:18:49.212Z,94336.50
2022-11-16T06:21:20.135Z,94336.09
2022-11-16T06:23:50.742Z,94331.44
2022-11-16T06:26:19.303Z,94332.25
2022-11-16T06:28:48.170Z,94336.47
2022-11-16T06:31:16.285Z,94325.66
2022-11-16T06:33:45.173Z,94324.81
2022-11-16T06:36:19.120Z,94331.28
2022-11-16T06:38:47.362Z,94320.72
2022-11-16T06:41:18.862Z,94338.50
2022-11-16T06:43:49.929Z,94333.25
2022-11-16T06:46:21.565Z,94335.63
2022-11-16T06:48:49.274Z,94329.31
2022-11-16T06:51:18.245Z,94336.00
2022-11-16T06:53:49.653Z,94332.13
2022-11-16T06:56:19.498Z,94344.56
2022-11-16T06:58:53.619Z,94339.66
2022-11-16T07:01:22.715Z,94347.78
2022-11-16T07:03:51.995Z,94351.44
2022-11-16T07:06:20.051Z,94349.38
2022-11-16T07:08:47.836Z,94355.06
2022-11-16T07:11:21.343Z,94346.34
2022-11-16T07:13:49.381Z,94348.53
2022-11-16T07:16:18.174Z,94350.16
2022-11-16T07:18:53.222Z,94345.19
2022-11-16T07:21:21.206Z,94347.25
2022-11-16T07:23:49.031Z,94357.22
2022-11-16T07:26:21.918Z,94350.91
2022-11-16T07:28:56.121Z,94345.94
2022-11-16T07:31:24.426Z,94359.16
2022-11-16T07:34:12.033Z,94356.50
2022-11-16T07:36:51.052Z,94356.94
2022-11-16T07:39:18.812Z,94353.91
2022-11-16T07:41:50.909Z,94367.03
2022-11-16T07:44:27.380Z,94380.50
2022-11-16T07:47:10.914Z,94380.91
2022-11-16T07:49:39.145Z,94380.47
2022-11-16T07:52:12.065Z,94371.03
2022-11-16T07:55:01.816Z,94383.16
2022-11-16T07:57:32.815Z,94387.84
2022-11-16T08:00:06.136Z,94385.78
2022-11-16T08:02:48.077Z,94384.19
2022-11-16T08:05:19.520Z,94383.00
2022-11-16T08:07:49.790Z,94379.66
2022-11-16T08:10:20.002Z,94385.38
2022-11-16T08:12:50.275Z,94380.75
2022-11-16T08:15:19.806Z,94379.19
2022-11-16T08:17:47.560Z,94392.50
2022-11-16T08:20:16.489Z,94379.84
2022-11-16T08:22:46.215Z,94387.88
2022-11-16T08:25:13.992Z,94385.47
2022-11-16T08:27:43.881Z,94394.56
2022-11-16T08:30:14.821Z,94385.78
2022-11-16T08:32:45.665Z,94395.38
2022-11-16T08:35:14.505Z,94398.38
2022-11-16T08:37:42.268Z,94398.66
2022-11-16T08:40:11.643Z,94400.44
2022-11-16T08:42:43.630Z,94399.56
2022-11-16T08:45:13.864Z,94405.97
2022-11-16T08:47:42.757Z,94403.91
2022-11-16T08:50:10.861Z,94409.19
2022-11-16T08:52:39.265Z,94404.91
2022-11-16T08:55:07.572Z,94413.53
2022-11-16T08:57:35.470Z,94412.28
2022-11-16T09:00:09.248Z,94417.06
2022-11-16T09:02:38.377Z,94416.66
2022-11-16T09:05:08.515Z,94419.06
2022-11-16T09:07:36.383Z,94420.19
2022-11-16T09:10:05.431Z,94427.75
2022-11-16T09:12:35.422Z,94423.44
2022-11-16T09:15:05.032Z,94428.13
2022-11-16T09:17:33.524Z,94430.63
2022-11-16T09:20:06.276Z,94433.53
2022-11-16T09:22:34.809Z,94440.72
2022-11-16T09:25:04.262Z,94425.22
2022-11-16T09:27:34.370Z,94434.44
2022-11-16T09:30:04.081Z,94430.38
2022-11-16T09:32:33.071Z,94430.97
2022-11-16T09:35:04.448Z,94432.53
2022-11-16T09:37:32.932Z,94419.81
2022-11-16T09:40:02.091Z,94418.31
2022-11-16T09:42:43.596Z,94414.72
2022-11-16T09:45:20.447Z,94419.53
2022-11-16T09:47:51.099Z,94409.94
2022-11-16T09:50:36.942Z,94412.22
2022-11-16T09:53:19.472Z,94415.03
2022-11-16T09:55:50.052Z,94421.97
2022-11-16T09:58:23.965Z,94416.25
2022-11-16T10:00:59.685Z,94413.88
2022-11-16T10:03:30.060Z,94409.19
2022-11-16T10:06:04.070Z,94419.00
2022-11-16T10:08:45.128Z,94432.16
2022-11-16T10:11:29.620Z,94409.06
2022-11-16T10:14:07.993Z,94414.00
2022-11-16T10:16:41.615Z,94418.28
2022-11-16T10:19:21.946Z,94414.81
2022-11-16T10:21:59.089Z,94411.09
2022-11-16T10:24:34.521Z,94404.19
2022-11-16T10:27:29.717Z,94413.94
2022-11-16T10:30:08.068Z,94409.22
2022-11-16T10:32:38.580Z,94408.03
2022-11-16T10:35:13.270Z,94404.63
2022-11-16T10:37:47.549Z,94399.56
2022-11-16T10:40:20.543Z,94394.41
2022-11-16T10:42:58.693Z,94398.75
2022-11-16T10:45:34.432Z,94391.50
2022-11-16T10:48:11.239Z,94396.94
2022-11-16T10:50:41.980Z,94387.75
2022-11-16T10:53:15.628Z,94403.75
2022-11-16T10:55:44.023Z,94403.47
2022-11-16T10:58:11.670Z,94399.88
2022-11-16T11:00:48.399Z,94402.50
2022-11-16T11:03:30.008Z,94401.13
2022-11-16T11:05:58.174Z,94402.56
2022-11-16T11:08:30.407Z,94403.91
2022-11-16T11:11:02.304Z,94402.59
2022-11-16T11:13:30.359Z,94405.16
2022-11-16T11:16:16.647Z,94397.78
2022-11-16T11:18:44.386Z,94398.16
2022-11-16T11:21:19.748Z,94402.72
2022-11-16T11:23:52.320Z,94405.00
2022-11-16T11:26:34.880Z,94409.75
2022-11-16T11:29:16.779Z,94400.97
2022-11-16T11:31:47.576Z,94400.47
2022-11-16T11:34:19.811Z,94403.22
2022-11-16T11:36:51.993Z,94409.16
2022-11-16T11:39:37.699Z,94393.16
2022-11-16T11:42:19.699Z,94398.81
2022-11-16T11:44:54.510Z,94383.94
2022-11-16T11:48:00.957Z,94395.91
2022-11-16T11:50:41.626Z,94398.25
2022-11-16T11:53:22.229Z,94389.38
2022-11-16T11:55:57.577Z,94388.59
2022-11-16T11:58:31.055Z,94389.47
2022-11-16T12:01:20.742Z,94383.69
2022-11-16T12:04:11.647Z,94382.47
2022-11-16T12:06:50.297Z,94367.59
2022-11-16T12:09:33.447Z,94375.31
2022-11-16T12:12:24.678Z,94375.19
2022-11-16T12:15:07.092Z,94365.88
2022-11-16T12:17:46.933Z,94367.34
2022-11-16T12:20:30.897Z,94371.84
2022-11-16T12:23:12.592Z,94371.19
2022-11-16T12:25:47.715Z,94368.94
2022-11-16T12:28:34.751Z,94372.34
2022-11-16T12:31:20.236Z,94369.69
2022-11-16T12:33:58.235Z,94366.34
2022-11-16T12:36:36.625Z,94360.94
2022-11-16T12:39:20.811Z,94356.09
2022-11-16T12:42:00.063Z,94353.06
2022-11-16T12:44:52.818Z,94361.13
2022-11-16T12:47:31.865Z,94352.03
2022-11-16T12:50:13.781Z,94353.22
2022-11-16T12:52:56.000Z,94350.69
2022-11-16T12:55:30.267Z,94347.53
2022-11-16T12:58:08.502Z,94346.69
2022-11-16T13:00:50.271Z,94353.50
2022-11-16T13:03:24.762Z,94341.81
2022-11-16T13:06:01.211Z,94358.75
2022-11-16T13:08:48.467Z,94355.75
2022-11-16T13:11:21.806Z,94349.38
2022-11-16T13:13:54.283Z,94343.13
2022-11-16T13:16:25.657Z,94347.78
2022-11-16T13:18:55.182Z,94353.00
2022-11-16T13:21:31.628Z,94344.75
2022-11-16T13:24:17.392Z,94341.47
2022-11-16T13:26:52.792Z,94341.16
2022-11-16T13:29:30.255Z,94345.78
2022-11-16T13:32:07.514Z,94355.06
2022-11-16T13:34:38.697Z,94348.00
2022-11-16T13:37:40.129Z,94343.19
2022-11-16T13:40:27.326Z,94341.22
2022-11-16T13:43:17.868Z,94336.84
2022-11-16T13:45:53.807Z,94332.94
2022-11-16T13:48:26.568Z,94336.41
2022-11-16T13:50:56.565Z,94337.19
2022-11-16T13:56:18.004Z,94331.78
2022-11-16T13:58:48.685Z,94328.56
2022-11-16T14:01:17.436Z,94333.19
2022-11-16T14:03:48.484Z,94322.34
2022-11-16T14:06:55.822Z,94316.13
2022-11-16T14:09:46.015Z,94321.53
2022-11-16T14:12:57.179Z,94318.78
2022-11-16T14:15:28.323Z,94313.69
2022-11-16T14:17:59.353Z,94317.19
2022-11-16T14:21:05.898Z,94322.56
2022-11-16T14:23:59.664Z,94308.06
2022-11-16T14:26:41.004Z,94310.03
2022-11-16T14:29:37.824Z,94305.09
2022-11-16T14:32:18.043Z,94309.91
2022-11-16T14:34:50.474Z,94303.09
2022-11-16T14:37:31.886Z,94300.47
2022-11-16T14:40:05.615Z,94308.78
2022-11-16T14:42:54.740Z,94298.59
2022-11-16T14:45:28.871Z,94298.19
2022-11-16T14:48:01.856Z,94295.06
2022-11-16T14:50:30.235Z,94291.34
2022-11-16T14:53:01.516Z,94298.31
2022-11-16T14:55:30.584Z,94299.00
2022-11-16T14:58:09.499Z,94287.81
2022-11-16T15:00:38.355Z,94284.97
2022-11-16T15:03:07.342Z,94286.88
2022-11-16T15:05:39.461Z,94284.09
2022-11-16T15:08:18.541Z,94282.97
2022-11-16T15:10:52.327Z,94287.47
2022-11-16T15:13:23.574Z,94290.31
2022-11-16T15:16:08.321Z,94282.41
2022-11-16T15:18:36.316Z,94281.16
2022-11-16T15:21:04.017Z,94281.63
2022-11-16T15:23:31.938Z,94287.44
2022-11-16T15:26:02.338Z,94286.69
2022-11-16T15:28:33.307Z,94275.22
2022-11-16T15:31:04.293Z,94275.88
2022-11-16T15:33:36.601Z,94279.13
2022-11-16T15:36:22.818Z,94281.84
2022-11-16T15:38:52.565Z,94272.25
2022-11-16T15:41:22.900Z,94269.69
2022-11-16T15:44:13.281Z,94274.22
2022-11-16T15:46:42.932Z,94273.41
2022-11-16T15:49:23.092Z,94272.31
2022-11-16T15:51:50.743Z,94272.91
2022-11-16T15:54:25.076Z,94276.84
2022-11-16T15:56:57.185Z,94277.06
2022-11-16T15:59:29.445Z,94273.19
2022-11-16T16:01:57.854Z,94277.34
2022-11-16T16:04:27.484Z,94277.03
2022-11-16T16:06:56.982Z,94280.69
2022-11-16T16:09:28.300Z,94293.84
2022-11-16T16:12:15.876Z,94282.06
2022-11-16T16:14:44.763Z,94285.97
2022-11-16T16:17:22.098Z,94286.03
2022-11-16T16:19:56.261Z,94284.47
2022-11-16T16:22:27.183Z,94283.00
2022-11-16T16:24:55.725Z,94281.13
2022-11-16T16:27:26.117Z,94278.06
2022-11-16T16:29:55.121Z,94277.72
2022-11-16T16:32:26.083Z,94270.88
2022-11-16T16:34:54.398Z,94279.84
2022-11-16T16:37:22.289Z,94280.66
2022-11-16T16:39:50.713Z,94279.28
2022-11-16T16:42:18.886Z,94284.81
2022-11-16T16:44:49.024Z,94282.38
2022-11-16T16:47:17.850Z,94285.06
2022-11-16T16:49:45.820Z,94282.00
2022-11-16T16:52:14.073Z,94279.94
2022-11-16T16:54:42.748Z,94275.09
2022-11-16T16:57:14.721Z,94269.03
2022-11-16T16:59:42.648Z,94269.03
2022-11-16T17:02:12.456Z,94276.31
2022-11-16T17:04:40.210Z,94277.16
2022-11-16T17:07:08.319Z,94275.94
2022-11-16T17:09:36.133Z,94276.78
2022-11-16T17:12:03.863Z,94271.34
2022-11-16T17:14:31.512Z,94271.34
2022-11-16T17:17:00.107Z,94266.31
2022-11-16T17:19:30.157Z,94262.72
2022-11-16T17:21:58.226Z,94259.50
2022-11-16T17:24:25.911Z,94257.50
2022-11-16T17:26:53.597Z,94259.16
2022-11-16T17:29:21.280Z,94244.38
2022-11-16T17:31:49.606Z,94241.34
2022-11-16T17:34:17.366Z,94233.25
2022-11-16T17:36:46.771Z,94239.94
2022-11-16T17:39:15.875Z,94239.34
2022-11-16T17:41:43.564Z,94231.25
2022-11-16T17:44:11.440Z,94235.69
2022-11-16T17:46:39.438Z,94233.69
2022-11-16T17:49:07.080Z,94230.25
2022-11-16T17:51:35.016Z,94225.59
2022-11-16T17:54:04.221Z,94225.78
2022-11-16T17:56:32.065Z,94223.34
2022-11-16T17:58:59.814Z,94230.97
2022-11-16T18:01:28.151Z,94233.38
2022-11-16T18:03:56.088Z,94223.06
2022-11-16T18:06:25.883Z,94229.09
2022-11-16T18:08:54.066Z,94235.94
2022-11-16T18:11:25.534Z,94235.97
2022-11-16T18:13:54.461Z,94242.41
2022-11-16T18:16:24.176Z,94236.78
2022-11-16T18:18:57.865Z,94247.28
2022-11-16T18:21:26.083Z,94243.66
2022-11-16T18:23:54.092Z,94242.84
2022-11-16T18:26:25.199Z,94237.41
2022-11-16T18:28:53.852Z,94233.41
2022-11-16T18:31:24.594Z,94224.72
2022-11-16T18:33:53.287Z,94226.13
2022-11-16T18:36:22.471Z,94222.88
2022-11-16T18:38:50.179Z,94218.19
2022-11-16T18:41:21.216Z,94222.22
2022-11-16T18:43:51.966Z,94215.75
2022-11-16T18:46:21.315Z,94214.91
2022-11-16T18:48:49.261Z,94208.84
2022-11-16T18:51:18.421Z,94202.59
2022-11-16T18:53:46.153Z,94204.63
2022-11-16T18:56:14.343Z,94204.78
2022-11-16T18:58:50.179Z,94195.50
2022-11-16T19:01:22.305Z,94191.88
2022-11-16T19:03:50.365Z,94191.06
2022-11-16T19:06:18.459Z,94185.22
2022-11-16T19:08:53.806Z,94181.41
2022-11-16T19:11:24.437Z,94178.97
2022-11-16T19:13:54.282Z,94176.56
2022-11-16T19:16:25.115Z,94174.13
2022-11-16T19:18:53.083Z,94176.31
2022-11-16T19:21:22.028Z,94171.06
2022-11-16T19:23:51.760Z,94165.81
2022-11-16T19:26:21.695Z,94152.69
2022-11-16T19:28:51.094Z,94151.28
2022-11-16T19:31:20.756Z,94146.28
2022-11-16T19:33:54.031Z,94145.88
2022-11-16T19:36:22.312Z,94146.28
2022-11-16T19:38:50.058Z,94140.00
2022-11-16T19:41:20.252Z,94146.69
2022-11-16T19:43:48.058Z,94139.78
2022-11-16T19:46:17.415Z,94141.38
2022-11-16T19:48:47.146Z,94144.16
2022-11-16T19:51:18.210Z,94133.47
2022-11-16T19:53:46.237Z,94124.78
2022-11-16T19:56:15.810Z,94127.56
2022-11-16T19:58:44.332Z,94130.56
2022-11-16T20:01:14.777Z,94141.56
2022-11-16T20:03:43.219Z,94139.53
2022-11-16T20:06:12.822Z,94142.47
2022-11-16T20:08:44.529Z,94134.00
2022-11-16T20:11:13.469Z,94128.41
2022-11-16T20:13:42.331Z,94138.00
2022-11-16T20:16:12.768Z,94138.38
2022-11-16T20:18:41.841Z,94143.09
2022-11-16T20:21:12.889Z,94145.09
2022-11-16T20:23:44.115Z,94127.81
2022-11-16T20:26:13.298Z,94134.66
2022-11-16T20:28:42.491Z,94143.47
2022-11-16T20:31:12.661Z,94133.03
2022-11-16T20:33:41.326Z,94133.66
2022-11-16T20:36:11.255Z,94145.97
2022-11-16T20:38:40.541Z,94129.84
2022-11-16T20:41:11.536Z,94128.22
2022-11-16T20:43:40.281Z,94131.25
2022-11-16T20:46:08.928Z,94129.75
2022-11-16T20:48:37.278Z,94132.47
2022-11-16T20:51:05.408Z,94132.31
2022-11-16T20:53:33.460Z,94140.59
2022-11-16T20:56:03.025Z,94150.41
2022-11-16T20:58:33.251Z,94150.72
2022-11-16T21:01:01.852Z,94150.41
2022-11-16T21:03:29.920Z,94145.13
2022-11-16T21:05:57.759Z,94135.94
2022-11-16T21:08:26.284Z,94133.53
2022-11-16T21:10:54.111Z,94127.22
2022-11-16T21:13:45.685Z,94132.28
2022-11-16T21:16:16.300Z,94118.50
2022-11-16T21:18:44.537Z,94111.13
2022-11-16T21:21:14.064Z,94110.19
2022-11-16T21:23:47.192Z,94096.91
2022-11-16T21:26:16.849Z,94090.44
2022-11-16T21:28:45.604Z,94086.22
2022-11-16T21:31:15.757Z,94084.78
2022-11-16T21:33:44.701Z,94083.19
2022-11-16T21:36:13.704Z,94081.94
2022-11-16T21:38:41.546Z,94085.53
2022-11-16T21:41:10.582Z,94080.72
2022-11-16T21:43:40.502Z,94081.47
2022-11-16T21:46:10.824Z,94087.06
2022-11-16T21:48:40.590Z,94087.81
2022-11-16T21:51:09.497Z,94088.22
2022-11-16T21:53:37.877Z,94092.19
2022-11-16T21:56:07.056Z,94098.16
2022-11-16T21:58:35.541Z,94087.59
2022-11-16T22:01:03.595Z,94092.31
2022-11-16T22:03:33.777Z,94084.63
2022-11-16T22:06:22.768Z,94079.75
2022-11-16T22:08:51.501Z,94072.47
2022-11-16T22:11:21.911Z,94074.03
2022-11-16T22:13:50.359Z,94070.78
2022-11-16T22:16:20.862Z,94068.56
2022-11-16T22:18:49.053Z,94058.28
2022-11-16T22:21:18.192Z,94055.50
2022-11-16T22:23:46.071Z,94071.16
2022-11-16T22:26:14.865Z,94086.03
2022-11-16T22:28:42.865Z,94076.78
2022-11-16T22:31:12.521Z,94076.88
2022-11-16T22:33:41.123Z,94069.16
2022-11-16T22:36:10.665Z,94070.16
2022-11-16T22:38:39.695Z,94072.16
2022-11-16T22:41:07.402Z,94067.72
2022-11-16T22:43:36.324Z,94068.34
2022-11-16T22:46:06.391Z,94075.81
2022-11-16T22:48:36.382Z,94068.25
2022-11-16T22:51:08.883Z,94074.28
2022-11-16T22:53:37.207Z,94072.28
2022-11-16T22:56:08.650Z,94053.19
2022-11-16T22:58:36.658Z,94042.16
2022-11-16T23:01:04.448Z,94041.81
2022-11-16T23:03:32.311Z,94035.41
2022-11-16T23:06:00.888Z,94029.38
2022-11-16T23:08:28.661Z,94026.75
2022-11-16T23:11:18.492Z,94021.53
2022-11-16T23:14:02.260Z,94024.97
2022-11-16T23:16:29.974Z,94009.72
2022-11-16T23:18:58.175Z,94016.56
2022-11-16T23:21:43.601Z,94009.09
2022-11-16T23:24:30.230Z,94004.88
2022-11-16T23:27:15.957Z,94017.31
2022-11-16T23:29:45.076Z,94021.28
2022-11-16T23:32:12.727Z,94014.44
2022-11-16T23:34:40.569Z,94013.22
2022-11-16T23:37:08.965Z,94000.16
2022-11-16T23:39:37.114Z,94005.56
2022-11-16T23:42:22.469Z,94003.94
2022-11-16T23:44:51.886Z,93996.28
2022-11-16T23:47:19.567Z,94007.09
2022-11-16T23:49:47.380Z,94010.53
2022-11-16T23:52:15.509Z,93999.28
2022-11-16T23:54:43.902Z,93998.47
2022-11-16T23:57:11.525Z,93990.97
2022-11-16T23:59:39.899Z,93990.81
